Longwood, FL (32750)

2:00 AM EST on February 27, 2015 (GMT -0500)
Longwood | Change Station
CLOSE
Current Station
Personal Weather Station
Location: Longwood, FL
Elevation: 82 ft
Nearby Weather Stations

Elev 82 ft 28.72 °N, 81.35 °W | Updated 21 seconds ago

Overcast
Overcast
54.1 °F
Feels Like 54.1 °F
N
3.0
Wind Variable Wind from NNE
Gusts 5.0 mph

Today
High -- | Low -- °F
--% Chance of Precip.
Yesterday
High -- | Low -- °F
Precip. -- in
6:52 AM 6:23 PM
Waxing Gibbous, 66% visible
Pressure 30.09 in
Visibility 10.0 miles
Clouds Few 1900 ft
Overcast 2600 ft
Dew Point 49 °F
Humidity 83%
Rainfall 0.00 in
Snow Depth Not available.
UV 0 out of 12
Pollen 6.00 out of 12
Air Quality Not available.
Flu Activity Not available.
METAR KSFB 270653Z AUTO 02011KT 10SM FEW019 OVC026 12/08 A3008 RMK AO2 SLP187 T01220078

More Conditions Fewer Conditions

Pressure 30.09 in
Visibility 10.0 miles
Clouds Few 1900 ft
Overcast 2600 ft
Dew Point 49 °F
Humidity 83%
Rainfall 0.00 in
Snow Depth Not available.
UV 0 out of 12
Pollen 6.00 out of 12
Air Quality Not available.
Flu Activity Not available.
METAR KSFB 270653Z AUTO 02011KT 10SM FEW019 OVC026 12/08 A3008 RMK AO2 SLP187 T01220078

More Conditions Fewer Conditions

Nowcast | as of 9:49 PM EST on February 26, 2015

Persistent fast moving showers will continue to move toward the northeast at 35 to 40 mph south of a line from Palm Bay to Lake Marian...including Okeechobee...Indian River...Saint Lucie and Martin counties. This area is underneath strong upward forcing from a departing mid level...700 millibar...jet axis. Occasional heavy downpours will be possible through midnight and even into the early morning hours but conditions are not favorable for thunderstorms. Farther north...noticeably cooler air is overspreading lake...Volusia and the Orlando Metro with temperatures falling through the 50s overnight...into the upper 40s by sunrise. A low overcast there may produce a few sprinkles. Additional details...including graphics are available online at: http://www.Srh.NOAA.Gov/mlb/blog.Php

×

10-Day Weather Forecast

Almanac

Astronomy

Feb. 27, 2015 Rise Set
Actual Time
Civil Twilight
Nautical Twilight
Astronomical Twilight
Moon
Length of Visible Light
Length of Day
Tomorrow will be .
, % of the Moon is Illuminated

Today's Extremes

State Highs State Lows

Community

WunderPhotos

Upload Photos

1,800,646 photos uploaded!

WunderBlogs® & News

Nearby

Air Quality

  Air Quality AQ Index Pollutant
Not available.

Snow Depth

Station Depth Elevation

Earthquake Activity

City Distance Mag. Time & Date
Minimum magnitude displayed is 2.5.

Coastal Water Temperatures

Place Temperature

Nearby Weather Stations